Time;durP1;ratioP1;P1;durP2;ratioP2;P2;SDS_P1;SDS_P2;PMS_P1;PMS_P2;Temp;Humidity;BMP_temperature;BMP_pressure;BME280_temperature;BME280_humidity;BME280_pressure;Samples;Min_cycle;Max_cycle;Signal;HPM_P1;HPM_P2
2022/03/07 00:01:24;;;;;;;;;;;1.30;73.30;;;;;;5090085;28;20269;-86
2022/03/07 00:03:51;;;;;;;;;;;1.30;73.70;;;;;;5108950;28;19912;-86
2022/03/07 00:06:16;;;;;;;;;;;1.40;73.80;;;;;;5110426;28;19931;-86
2022/03/07 00:15:51;;;;;;;;;;;1.40;74.30;;;;;;5111195;27;19916;-86
2022/03/07 00:19:19;;;;;;;;;;;1.10;75.30;;;;;;5131548;27;19912;-87
2022/03/07 00:21:44;;;;;;;;;;;1.20;75.60;;;;;;5130841;27;20284;-87
2022/03/07 00:24:10;;;;;;;;;;;1.20;75.20;;;;;;5131548;27;19919;-87
2022/03/07 00:31:02;;;;;;;;;;;1.30;74.80;;;;;;5111044;27;19912;-85
2022/03/07 00:33:28;;;;;;;;;;;1.20;74.30;;;;;;5111043;28;19912;-85
2022/03/07 00:35:53;;;;;;;;;;;1.30;74.20;;;;;;5110563;28;19916;-86
2022/03/07 00:38:19;;;;;;;;;;;1.20;74.30;;;;;;5109449;28;20423;-85
2022/03/07 00:40:44;;;;;;;;;;;1.10;74.30;;;;;;5090568;28;19912;-86
2022/03/07 00:43:10;;;;;;;;;;;1.10;74.20;;;;;;5101565;28;20049;-85
2022/03/07 00:47:20;;;;;;;;;;;1.20;74.40;;;;;;5100696;27;2039810;-85
2022/03/07 00:49:46;;;;;;;;;;;1.10;74.40;;;;;;5173025;27;19911;-86
2022/03/07 00:52:12;;;;;;;;;;;1.20;74.10;;;;;;5157021;27;19955;-86
2022/03/07 00:56:57;;;;;;;;;;;1.10;74.20;;;;;;5111080;27;20316;-85
2022/03/07 00:59:23;;;;;;;;;;;1.20;74.70;;;;;;5110291;28;20460;-86
2022/03/07 01:01:48;;;;;;;;;;;1.30;73.50;;;;;;5110941;28;19908;-86
2022/03/07 01:04:14;;;;;;;;;;;1.40;73.00;;;;;;5101706;28;19912;-86
2022/03/07 01:08:00;;;;;;;;;;;1.60;73.10;;;;;;5100611;27;19920;-86
2022/03/07 01:10:26;;;;;;;;;;;1.70;72.20;;;;;;5090661;28;20003;-86
2022/03/07 01:20:30;;;;;;;;;;;1.90;72.00;;;;;;5131683;27;19918;-86
2022/03/07 01:45:31;;;;;;;;;;;1.80;73.00;;;;;;5152295;27;19912;-86
2022/03/07 01:47:57;;;;;;;;;;;0.90;74.20;;;;;;5151518;27;20270;-85
2022/03/07 01:50:22;;;;;;;;;;;1.00;74.60;;;;;;5152129;27;20428;-86
2022/03/07 01:52:50;;;;;;;;;;;1.30;73.70;;;;;;5151995;27;19914;-86
2022/03/07 01:56:23;;;;;;;;;;;1.50;72.80;;;;;;5110372;27;19916;-86
2022/03/07 02:08:01;;;;;;;;;;;1.60;72.00;;;;;;5110411;27;19920;-86
2022/03/07 02:10:28;;;;;;;;;;;1.00;72.70;;;;;;5110926;28;20448;-85
2022/03/07 02:12:54;;;;;;;;;;;0.80;73.80;;;;;;5109172;28;19912;-85
2022/03/07 02:15:19;;;;;;;;;;;0.60;74.90;;;;;;5110205;28;20258;-85
2022/03/07 02:17:48;;;;;;;;;;;0.60;75.80;;;;;;5090487;28;20374;-86
2022/03/07 02:20:14;;;;;;;;;;;0.60;75.50;;;;;;5090746;28;19912;-85
2022/03/07 02:22:40;;;;;;;;;;;0.70;74.80;;;;;;5092445;28;19931;-85
2022/03/07 02:25:06;;;;;;;;;;;0.70;74.70;;;;;;5111010;28;19957;-85
2022/03/07 02:27:32;;;;;;;;;;;0.80;74.50;;;;;;5110640;28;19955;-86
2022/03/07 02:29:59;;;;;;;;;;;1.10;75.20;;;;;;5090690;28;20004;-85
2022/03/07 02:32:26;;;;;;;;;;;1.20;73.40;;;;;;5090231;28;19943;-85
2022/03/07 02:34:51;;;;;;;;;;;1.30;72.20;;;;;;5110301;28;20370;-85
2022/03/07 02:37:17;;;;;;;;;;;1.30;70.70;;;;;;5110763;28;19908;-85
2022/03/07 02:39:42;;;;;;;;;;;1.30;70.60;;;;;;5110517;28;19912;-85
2022/03/07 02:42:08;;;;;;;;;;;1.30;70.70;;;;;;5110455;28;20274;-85
2022/03/07 02:44:33;;;;;;;;;;;1.40;71.30;;;;;;5098129;28;19908;-85
2022/03/07 02:46:59;;;;;;;;;;;1.30;71.30;;;;;;5108462;28;19916;-85
2022/03/07 02:49:24;;;;;;;;;;;1.30;70.90;;;;;;5110274;28;19908;-85
2022/03/07 02:51:50;;;;;;;;;;;1.30;70.90;;;;;;5110268;28;19912;-85
2022/03/07 02:54:15;;;;;;;;;;;1.30;73.10;;;;;;5095093;28;19909;-85
2022/03/07 02:56:41;;;;;;;;;;;1.40;73.60;;;;;;5089808;28;19918;-85
2022/03/07 02:59:07;;;;;;;;;;;1.40;72.70;;;;;;5101371;28;19915;-85
2022/03/07 03:01:32;;;;;;;;;;;1.50;73.50;;;;;;5101548;28;20006;-86
2022/03/07 03:03:58;;;;;;;;;;;1.60;72.80;;;;;;5089653;28;19909;-85
2022/03/07 03:06:23;;;;;;;;;;;1.60;72.80;;;;;;5089388;28;19924;-85
2022/03/07 03:08:49;;;;;;;;;;;1.60;72.20;;;;;;5089479;28;19909;-85
2022/03/07 03:11:14;;;;;;;;;;;1.60;72.00;;;;;;5094646;28;19924;-85
2022/03/07 03:13:40;;;;;;;;;;;1.50;73.20;;;;;;5103368;28;20445;-85
2022/03/07 03:16:05;;;;;;;;;;;1.40;73.60;;;;;;5095638;28;20003;-85
2022/03/07 03:18:31;;;;;;;;;;;1.20;75.00;;;;;;5101018;28;19943;-85
2022/03/07 03:20:56;;;;;;;;;;;0.80;75.60;;;;;;5093010;28;19912;-85
2022/03/07 03:23:22;;;;;;;;;;;0.70;75.10;;;;;;5075828;28;20428;-85
2022/03/07 03:25:48;;;;;;;;;;;0.50;76.40;;;;;;5075916;28;19916;-85
2022/03/07 03:28:14;;;;;;;;;;;0.40;76.70;;;;;;5075964;28;20011;-85
2022/03/07 03:30:39;;;;;;;;;;;0.40;76.50;;;;;;5096303;28;19986;-85
2022/03/07 03:33:05;;;;;;;;;;;0.40;76.70;;;;;;5095873;28;20058;-85
2022/03/07 03:35:30;;;;;;;;;;;0.40;77.60;;;;;;5095819;28;19908;-85
2022/03/07 03:37:56;;;;;;;;;;;0.50;77.80;;;;;;5094495;28;20170;-85
2022/03/07 03:40:21;;;;;;;;;;;0.60;78.40;;;;;;5096308;28;19908;-85
2022/03/07 03:42:47;;;;;;;;;;;0.70;78.60;;;;;;5095690;28;19908;-85
2022/03/07 03:45:13;;;;;;;;;;;0.80;78.00;;;;;;5095664;28;19917;-86
2022/03/07 03:47:40;;;;;;;;;;;0.90;77.70;;;;;;5095589;28;19976;-85
2022/03/07 03:50:07;;;;;;;;;;;0.70;75.40;;;;;;5095581;28;19908;-85
2022/03/07 03:52:33;;;;;;;;;;;0.60;76.20;;;;;;5095562;28;19997;-85
2022/03/07 03:54:58;;;;;;;;;;;0.50;76.00;;;;;;5095502;28;19908;-85
2022/03/07 03:57:24;;;;;;;;;;;0.40;77.20;;;;;;5095442;28;20449;-85
2022/03/07 03:59:50;;;;;;;;;;;0.30;77.90;;;;;;5095384;28;19912;-85
2022/03/07 04:02:15;;;;;;;;;;;0.20;78.20;;;;;;5095594;28;19908;-85
2022/03/07 04:04:41;;;;;;;;;;;0.10;78.50;;;;;;5095303;28;20251;-85
2022/03/07 04:07:06;;;;;;;;;;;0.00;78.20;;;;;;5095053;28;20007;-85
2022/03/07 04:09:32;;;;;;;;;;;0.00;78.30;;;;;;5095415;28;20000;-85
2022/03/07 04:11:58;;;;;;;;;;;0.00;78.30;;;;;;5095133;28;19958;-85
2022/03/07 04:14:23;;;;;;;;;;;0.10;79.20;;;;;;5095093;28;19938;-85
2022/03/07 04:16:49;;;;;;;;;;;0.40;79.10;;;;;;5095052;28;19958;-85
2022/03/07 04:19:15;;;;;;;;;;;0.40;77.50;;;;;;5095029;28;19914;-85
2022/03/07 04:21:41;;;;;;;;;;;0.30;77.00;;;;;;5094962;28;19908;-85
2022/03/07 04:24:07;;;;;;;;;;;0.20;76.90;;;;;;5094907;28;19915;-85
2022/03/07 04:26:33;;;;;;;;;;;0.10;77.10;;;;;;5094807;28;20440;-85
2022/03/07 04:29:00;;;;;;;;;;;0.10;77.70;;;;;;5093103;28;19908;-85
2022/03/07 04:31:25;;;;;;;;;;;0.10;78.50;;;;;;5094121;28;19908;-85
2022/03/07 04:33:51;;;;;;;;;;;0.10;78.80;;;;;;5094754;28;20258;-85
2022/03/07 04:36:19;;;;;;;;;;;0.00;79.20;;;;;;5094594;28;19908;-85
2022/03/07 04:38:45;;;;;;;;;;;0.00;80.50;;;;;;5094829;28;19908;-85
2022/03/07 04:41:11;;;;;;;;;;;-3276.70;80.10;;;;;;5094533;28;20354;-85
2022/03/07 04:43:37;;;;;;;;;;;0.00;79.70;;;;;;5094481;28;20004;-85
2022/03/07 04:46:04;;;;;;;;;;;0.00;79.20;;;;;;5094344;28;20369;-85
2022/03/07 04:48:30;;;;;;;;;;;0.00;79.00;;;;;;5094361;28;20358;-85
2022/03/07 04:50:55;;;;;;;;;;;0.00;78.60;;;;;;5094551;28;19908;-85
2022/03/07 04:53:21;;;;;;;;;;;0.10;78.60;;;;;;5094293;28;19908;-85
2022/03/07 04:55:47;;;;;;;;;;;0.20;78.80;;;;;;5094212;28;19931;-85
2022/03/07 04:58:13;;;;;;;;;;;0.20;78.80;;;;;;5094464;28;19909;-85
2022/03/07 05:00:38;;;;;;;;;;;0.30;78.60;;;;;;5094155;28;20004;-85
2022/03/07 05:03:04;;;;;;;;;;;0.40;78.50;;;;;;5094063;28;19957;-85
2022/03/07 05:05:29;;;;;;;;;;;0.40;77.30;;;;;;5094308;28;19908;-86
2022/03/07 05:07:55;;;;;;;;;;;0.50;77.30;;;;;;5093590;28;19920;-85
2022/03/07 05:10:21;;;;;;;;;;;0.60;77.40;;;;;;5093701;28;19908;-85
2022/03/07 05:12:47;;;;;;;;;;;0.20;77.60;;;;;;5093966;28;19979;-85
2022/03/07 05:15:12;;;;;;;;;;;0.00;79.50;;;;;;5093897;28;19908;-85
2022/03/07 05:17:45;;;;;;;;;;;0.00;80.60;;;;;;5093780;28;20397;-85
2022/03/07 05:20:11;;;;;;;;;;;0.00;80.10;;;;;;5093837;28;20366;-85
2022/03/07 05:22:38;;;;;;;;;;;0.00;79.00;;;;;;5093761;28;19923;-85
2022/03/07 05:25:05;;;;;;;;;;;-3276.70;79.40;;;;;;5093752;28;20413;-85
2022/03/07 05:27:31;;;;;;;;;;;-3276.60;80.20;;;;;;5093551;28;19935;-85
2022/03/07 05:29:56;;;;;;;;;;;-3276.30;79.50;;;;;;5093574;28;20369;-85
2022/03/07 05:32:22;;;;;;;;;;;-3275.90;80.20;;;;;;5093610;28;19908;-85
2022/03/07 05:34:47;;;;;;;;;;;-3275.80;80.80;;;;;;5093548;28;19958;-85
2022/03/07 05:37:13;;;;;;;;;;;-3275.90;81.80;;;;;;5093566;28;19912;-85
2022/03/07 05:39:38;;;;;;;;;;;-3276.30;82.20;;;;;;5093512;28;19912;-85
2022/03/07 05:42:04;;;;;;;;;;;-3276.60;81.80;;;;;;5093231;28;20365;-85
2022/03/07 05:44:29;;;;;;;;;;;0.00;81.20;;;;;;5093133;28;20365;-85
2022/03/07 05:46:55;;;;;;;;;;;0.00;80.00;;;;;;5093325;28;20010;-85
2022/03/07 05:49:20;;;;;;;;;;;-3276.60;79.30;;;;;;5067634;28;20385;-85
2022/03/07 05:51:46;;;;;;;;;;;-3276.40;79.40;;;;;;5060078;28;20321;-85
2022/03/07 05:54:11;;;;;;;;;;;-3276.20;80.30;;;;;;5061667;28;20425;-84
2022/03/07 05:56:37;;;;;;;;;;;-3276.20;81.20;;;;;;5053057;28;20358;-85
2022/03/07 05:59:03;;;;;;;;;;;-3276.10;82.60;;;;;;5053066;28;19909;-85
2022/03/07 06:01:28;;;;;;;;;;;-3276.10;83.50;;;;;;5062214;28;20051;-85
2022/03/07 06:03:54;;;;;;;;;;;-3276.10;83.90;;;;;;5066160;28;19939;-85
2022/03/07 06:06:19;;;;;;;;;;;-3276.20;84.00;;;;;;5069701;28;19920;-85
2022/03/07 06:08:45;;;;;;;;;;;-3276.30;83.70;;;;;;5064669;28;19919;-85
2022/03/07 06:11:10;;;;;;;;;;;-3276.40;83.10;;;;;;5071815;28;19923;-85
2022/03/07 06:13:36;;;;;;;;;;;-3276.20;83.10;;;;;;5072864;28;19912;-85
2022/03/07 06:16:02;;;;;;;;;;;-3276.20;83.00;;;;;;5071991;28;19982;-85
2022/03/07 06:18:27;;;;;;;;;;;-3276.20;82.70;;;;;;5072463;28;20374;-85
2022/03/07 06:20:53;;;;;;;;;;;-3276.20;82.80;;;;;;5072442;28;19912;-85
2022/03/07 06:23:19;;;;;;;;;;;-3276.10;82.70;;;;;;5072035;28;19939;-85
2022/03/07 06:25:45;;;;;;;;;;;-3276.20;82.50;;;;;;5071743;28;19919;-85
2022/03/07 06:28:11;;;;;;;;;;;-3276.40;82.50;;;;;;5071387;28;19912;-85
2022/03/07 06:30:37;;;;;;;;;;;-3276.50;82.30;;;;;;5071062;28;19920;-85
2022/03/07 06:33:02;;;;;;;;;;;-3276.60;81.90;;;;;;5065115;28;19913;-85
2022/03/07 06:35:28;;;;;;;;;;;-3276.70;81.70;;;;;;5069389;28;19913;-85
2022/03/07 06:37:54;;;;;;;;;;;-3276.70;81.50;;;;;;5072236;28;19971;-85
2022/03/07 06:40:20;;;;;;;;;;;0.00;81.60;;;;;;5078657;28;19919;-85
2022/03/07 06:42:46;;;;;;;;;;;0.00;81.20;;;;;;5064387;28;20004;-85
2022/03/07 06:45:13;;;;;;;;;;;0.00;81.40;;;;;;5068555;28;20496;-85
2022/03/07 06:47:39;;;;;;;;;;;0.00;82.40;;;;;;5092665;28;19976;-85
2022/03/07 06:50:05;;;;;;;;;;;0.20;82.80;;;;;;5061355;28;19920;-85
2022/03/07 06:52:30;;;;;;;;;;;0.20;82.70;;;;;;5072424;28;19908;-85
2022/03/07 06:54:56;;;;;;;;;;;0.30;82.90;;;;;;5075315;28;19956;-85
2022/03/07 06:57:21;;;;;;;;;;;0.30;83.20;;;;;;5072433;28;19912;-85
2022/03/07 06:59:48;;;;;;;;;;;0.30;83.50;;;;;;5070997;28;19912;-85
2022/03/07 07:02:13;;;;;;;;;;;0.40;83.20;;;;;;5068925;28;19921;-85
2022/03/07 07:04:39;;;;;;;;;;;0.50;82.80;;;;;;5070278;28;20614;-85
2022/03/07 07:07:04;;;;;;;;;;;0.60;82.40;;;;;;5070661;28;20012;-85
2022/03/07 07:09:30;;;;;;;;;;;0.70;81.90;;;;;;5065817;28;20001;-85
2022/03/07 07:11:56;;;;;;;;;;;0.80;81.10;;;;;;5072392;28;20446;-85
2022/03/07 07:14:21;;;;;;;;;;;1.00;79.60;;;;;;5059622;28;20282;-85
2022/03/07 07:16:47;;;;;;;;;;;1.10;77.40;;;;;;5066210;28;19966;-85
2022/03/07 07:19:12;;;;;;;;;;;1.20;75.80;;;;;;5081924;28;20411;-85
2022/03/07 07:21:38;;;;;;;;;;;1.30;75.40;;;;;;5088089;28;19912;-86
2022/03/07 07:24:04;;;;;;;;;;;1.40;75.80;;;;;;5068492;28;19917;-85
2022/03/07 07:26:29;;;;;;;;;;;1.40;75.80;;;;;;5073963;28;19916;-85
2022/03/07 07:28:55;;;;;;;;;;;1.50;75.80;;;;;;5078796;28;19912;-85
2022/03/07 07:31:20;;;;;;;;;;;1.60;75.50;;;;;;5079254;28;19998;-86
2022/03/07 07:33:46;;;;;;;;;;;1.70;74.50;;;;;;5078418;28;20011;-85
2022/03/07 07:36:11;;;;;;;;;;;1.80;73.60;;;;;;5073775;28;19920;-85
2022/03/07 07:38:37;;;;;;;;;;;2.00;73.10;;;;;;5095787;28;19908;-85
2022/03/07 07:41:02;;;;;;;;;;;2.20;72.50;;;;;;5074753;28;19912;-86
2022/03/07 07:43:28;;;;;;;;;;;2.20;72.10;;;;;;5075886;28;19955;-86
2022/03/07 07:45:54;;;;;;;;;;;2.40;71.30;;;;;;5074657;28;20380;-85
2022/03/07 07:48:19;;;;;;;;;;;2.50;69.50;;;;;;5081416;28;19912;-85
2022/03/07 07:50:45;;;;;;;;;;;2.70;68.70;;;;;;5075673;28;20026;-85
2022/03/07 07:53:10;;;;;;;;;;;2.80;68.70;;;;;;5081222;28;19954;-85
2022/03/07 07:55:36;;;;;;;;;;;3.00;69.50;;;;;;5088102;28;19959;-85
2022/03/07 07:58:01;;;;;;;;;;;3.20;69.50;;;;;;5085673;28;19951;-85
2022/03/07 08:00:27;;;;;;;;;;;3.40;69.00;;;;;;5081045;28;20207;-87
2022/03/07 08:02:53;;;;;;;;;;;3.40;69.70;;;;;;5073711;28;20007;-87
2022/03/07 08:05:19;;;;;;;;;;;3.50;68.60;;;;;;5069037;28;19913;-87
2022/03/07 08:07:44;;;;;;;;;;;3.60;68.80;;;;;;5069948;28;19925;-87
2022/03/07 08:10:10;;;;;;;;;;;3.60;67.70;;;;;;5060575;28;19913;-87
2022/03/07 08:12:36;;;;;;;;;;;3.70;67.70;;;;;;5067151;28;20004;-87
2022/03/07 08:15:05;;;;;;;;;;;3.70;67.80;;;;;;5072477;28;20011;-87
2022/03/07 08:17:30;;;;;;;;;;;3.80;67.80;;;;;;5070667;28;19956;-87
2022/03/07 08:19:56;;;;;;;;;;;3.90;67.20;;;;;;5069569;28;20017;-87
2022/03/07 08:22:21;;;;;;;;;;;4.00;66.40;;;;;;5069647;28;20286;-87
2022/03/07 08:24:47;;;;;;;;;;;4.10;65.80;;;;;;5070793;28;20298;-87
2022/03/07 08:27:13;;;;;;;;;;;4.30;65.20;;;;;;5068730;28;20274;-87
2022/03/07 08:29:38;;;;;;;;;;;4.50;64.10;;;;;;5074468;28;20391;-87
2022/03/07 08:32:04;;;;;;;;;;;4.80;62.60;;;;;;5083770;28;19970;-87
2022/03/07 08:34:31;;;;;;;;;;;5.00;60.80;;;;;;5071816;28;19998;-87
2022/03/07 08:36:57;;;;;;;;;;;5.20;60.00;;;;;;5068747;28;19971;-87
2022/03/07 08:39:22;;;;;;;;;;;5.40;58.40;;;;;;5069269;28;19948;-87
2022/03/07 08:41:48;;;;;;;;;;;5.50;59.90;;;;;;5061871;28;19912;-87
2022/03/07 08:44:13;;;;;;;;;;;5.60;56.40;;;;;;5072013;28;19927;-88
2022/03/07 08:46:39;;;;;;;;;;;5.60;53.80;;;;;;5071386;28;19920;-87
2022/03/07 08:49:05;;;;;;;;;;;5.60;54.70;;;;;;5068222;28;20018;-87
2022/03/07 08:54:07;;;;;;;;;;;5.70;56.60;;;;;;5111450;27;21340;-86
2022/03/07 08:56:32;;;;;;;;;;;5.70;55.80;;;;;;5107953;28;19918;-85
2022/03/07 09:01:29;;;;;;;;;;;5.90;55.00;;;;;;5130829;27;19915;-85
2022/03/07 09:03:54;;;;;;;;;;;5.90;54.80;;;;;;5130838;28;19912;-86
2022/03/07 09:06:20;;;;;;;;;;;6.10;53.00;;;;;;5125766;27;19987;-85
2022/03/07 09:08:45;;;;;;;;;;;6.20;53.90;;;;;;5115804;27;20002;-86
2022/03/07 09:11:11;;;;;;;;;;;6.40;53.70;;;;;;5157026;27;19962;-86
2022/03/07 09:13:36;;;;;;;;;;;6.50;50.40;;;;;;5152951;27;19911;-86
2022/03/07 09:16:02;;;;;;;;;;;6.80;49.30;;;;;;5147859;27;19934;-86
2022/03/07 09:24:29;;;;;;;;;;;6.90;47.50;;;;;;5032967;28;19917;-86
2022/03/07 09:26:54;;;;;;;;;;;6.70;47.50;;;;;;5021949;28;20257;-86
2022/03/07 09:29:20;;;;;;;;;;;6.80;49.20;;;;;;5018458;28;19937;-85
2022/03/07 09:31:46;;;;;;;;;;;6.90;48.90;;;;;;5015935;28;19913;-86
2022/03/07 09:34:14;;;;;;;;;;;7.10;47.70;;;;;;5031891;28;20000;-86
2022/03/07 09:36:40;;;;;;;;;;;7.20;47.40;;;;;;5038554;28;19921;-86
2022/03/07 09:39:06;;;;;;;;;;;7.20;45.70;;;;;;5023411;28;19920;-86
2022/03/07 09:41:31;;;;;;;;;;;7.30;48.10;;;;;;5018355;28;19976;-86
2022/03/07 09:43:57;;;;;;;;;;;7.40;47.50;;;;;;5027167;28;20375;-86
2022/03/07 09:46:23;;;;;;;;;;;7.40;45.60;;;;;;5026074;28;20416;-86
2022/03/07 09:48:48;;;;;;;;;;;7.40;46.00;;;;;;5031072;28;19914;-86
2022/03/07 09:51:14;;;;;;;;;;;7.50;46.00;;;;;;5033159;28;19914;-86
2022/03/07 09:53:40;;;;;;;;;;;7.60;43.60;;;;;;5021476;28;19928;-86
2022/03/07 09:56:05;;;;;;;;;;;7.80;44.50;;;;;;5028753;28;19914;-86
2022/03/07 09:58:31;;;;;;;;;;;7.90;43.90;;;;;;5013078;28;19941;-86
2022/03/07 10:01:05;;;;;;;;;;;7.90;43.10;;;;;;5024765;28;19928;-86
2022/03/07 10:03:30;;;;;;;;;;;7.70;42.00;;;;;;5037896;28;19917;-86
2022/03/07 10:05:57;;;;;;;;;;;7.50;42.10;;;;;;5038853;28;19974;-85
2022/03/07 10:08:27;;;;;;;;;;;7.60;46.20;;;;;;5037764;28;19917;-85
2022/03/07 10:10:53;;;;;;;;;;;7.50;44.30;;;;;;5015528;28;19920;-85
2022/03/07 10:13:20;;;;;;;;;;;7.70;46.30;;;;;;5010295;28;19963;-86
2022/03/07 10:15:54;;;;;;;;;;;7.80;45.00;;;;;;5011429;28;19930;-86
2022/03/07 10:18:19;;;;;;;;;;;7.80;44.90;;;;;;5011119;28;19918;-86
2022/03/07 10:20:52;;;;;;;;;;;7.90;42.50;;;;;;5012225;28;20376;-86
2022/03/07 10:23:18;;;;;;;;;;;7.80;43.10;;;;;;5017983;28;19988;-86
2022/03/07 10:25:44;;;;;;;;;;;7.90;45.30;;;;;;5029462;28;19918;-85
2022/03/07 10:28:10;;;;;;;;;;;8.00;43.40;;;;;;5020338;28;19971;-86
2022/03/07 10:30:37;;;;;;;;;;;8.10;43.10;;;;;;5027263;28;19913;-86
2022/03/07 10:33:10;;;;;;;;;;;8.30;45.30;;;;;;5029023;28;19918;-86
2022/03/07 10:35:40;;;;;;;;;;;8.50;44.30;;;;;;5016619;28;19948;-86
2022/03/07 10:38:11;;;;;;;;;;;8.70;44.20;;;;;;4997463;28;20190;-86
2022/03/07 10:40:39;;;;;;;;;;;8.60;40.80;;;;;;5011732;28;19998;-86
2022/03/07 10:43:05;;;;;;;;;;;8.60;42.70;;;;;;5020458;28;20361;-86
2022/03/07 10:45:31;;;;;;;;;;;8.60;44.40;;;;;;5024150;28;19924;-86
2022/03/07 10:47:59;;;;;;;;;;;8.90;43.60;;;;;;5013497;28;19949;-86
2022/03/07 10:50:26;;;;;;;;;;;9.10;44.10;;;;;;5014713;28;19913;-86
2022/03/07 10:52:57;;;;;;;;;;;9.30;44.10;;;;;;5013996;28;19920;-86
2022/03/07 10:55:27;;;;;;;;;;;9.40;41.20;;;;;;5016816;28;19921;-86
2022/03/07 10:58:03;;;;;;;;;;;9.30;41.20;;;;;;5012716;28;19953;-86
2022/03/07 11:00:29;;;;;;;;;;;9.20;41.50;;;;;;5023114;28;19921;-86
2022/03/07 11:02:54;;;;;;;;;;;8.90;40.20;;;;;;5016650;28;19928;-85
2022/03/07 11:05:20;;;;;;;;;;;8.90;40.90;;;;;;4991229;28;20024;-86
2022/03/07 11:07:46;;;;;;;;;;;9.00;40.40;;;;;;5015525;28;19921;-86
2022/03/07 11:10:13;;;;;;;;;;;8.90;39.50;;;;;;5019323;28;19913;-86
2022/03/07 11:12:38;;;;;;;;;;;9.10;41.10;;;;;;5013191;28;19933;-86
2022/03/07 11:15:11;;;;;;;;;;;9.10;42.50;;;;;;5007982;28;20371;-86
2022/03/07 11:17:43;;;;;;;;;;;9.00;41.00;;;;;;5014585;28;19914;-86
2022/03/07 11:20:10;;;;;;;;;;;8.80;40.90;;;;;;5014865;28;19914;-86
2022/03/07 11:22:36;;;;;;;;;;;8.90;40.40;;;;;;4992928;28;19926;-86
2022/03/07 11:25:02;;;;;;;;;;;9.10;40.20;;;;;;4995890;28;19914;-86
2022/03/07 11:27:28;;;;;;;;;;;9.40;41.00;;;;;;4987105;28;19957;-86
2022/03/07 11:29:55;;;;;;;;;;;9.70;39.80;;;;;;4989850;28;19918;-86
2022/03/07 11:32:21;;;;;;;;;;;9.80;41.70;;;;;;4979893;28;20395;-86
2022/03/07 11:35:00;;;;;;;;;;;9.90;39.70;;;;;;4992055;28;19938;-86
2022/03/07 11:37:32;;;;;;;;;;;9.80;40.70;;;;;;4992913;28;19913;-86
2022/03/07 11:39:58;;;;;;;;;;;10.00;39.60;;;;;;4995262;28;19964;-86
2022/03/07 11:42:33;;;;;;;;;;;10.30;37.80;;;;;;4995493;28;19957;-86
2022/03/07 11:45:03;;;;;;;;;;;10.50;36.80;;;;;;4975848;28;19910;-86
2022/03/07 11:47:34;;;;;;;;;;;10.80;40.10;;;;;;4974816;28;19929;-86
2022/03/07 11:50:00;;;;;;;;;;;11.20;38.90;;;;;;4987422;28;19937;-86
2022/03/07 11:52:26;;;;;;;;;;;11.40;38.60;;;;;;4995117;28;19997;-86
2022/03/07 11:54:53;;;;;;;;;;;11.40;37.20;;;;;;4994983;28;20024;-86
2022/03/07 11:57:29;;;;;;;;;;;11.20;36.90;;;;;;4995093;28;19917;-85
2022/03/07 11:59:54;;;;;;;;;;;10.90;37.60;;;;;;4994969;28;19937;-86
2022/03/07 12:02:20;;;;;;;;;;;10.90;36.30;;;;;;4998946;28;19914;-86
2022/03/07 12:04:46;;;;;;;;;;;11.40;35.20;;;;;;4992179;28;19914;-86
2022/03/07 12:07:11;;;;;;;;;;;11.50;38.10;;;;;;4993100;28;19914;-86
2022/03/07 12:09:38;;;;;;;;;;;11.30;36.00;;;;;;4992952;28;19945;-86
2022/03/07 12:12:08;;;;;;;;;;;11.10;35.40;;;;;;4993204;28;19914;-86
2022/03/07 12:14:41;;;;;;;;;;;11.40;37.30;;;;;;4993246;28;19921;-86
2022/03/07 12:17:11;;;;;;;;;;;11.90;36.80;;;;;;4993423;28;20393;-86
2022/03/07 12:19:37;;;;;;;;;;;12.40;36.40;;;;;;4994447;28;19929;-86
2022/03/07 12:22:10;;;;;;;;;;;12.70;35.20;;;;;;4991637;28;19922;-86
2022/03/07 12:24:37;;;;;;;;;;;12.90;34.70;;;;;;5011482;28;20379;-86
2022/03/07 12:27:03;;;;;;;;;;;13.20;34.40;;;;;;5010473;28;19936;-86
2022/03/07 12:29:28;;;;;;;;;;;13.50;34.40;;;;;;5012815;28;20287;-86
2022/03/07 12:31:54;;;;;;;;;;;13.60;31.80;;;;;;4993994;28;19914;-86
2022/03/07 12:34:23;;;;;;;;;;;13.30;32.80;;;;;;5011406;28;19918;-86
2022/03/07 12:36:59;;;;;;;;;;;13.60;32.20;;;;;;4995886;28;19918;-86
2022/03/07 12:39:26;;;;;;;;;;;13.90;32.70;;;;;;5003815;28;19913;-87
2022/03/07 12:41:51;;;;;;;;;;;14.50;29.70;;;;;;5008038;28;19913;-87
2022/03/07 12:44:17;;;;;;;;;;;15.40;30.20;;;;;;5005114;28;19944;-87
2022/03/07 12:46:42;;;;;;;;;;;16.30;28.50;;;;;;5005849;28;19956;-87
2022/03/07 12:49:08;;;;;;;;;;;17.60;26.20;;;;;;5014531;28;19932;-87
2022/03/07 12:51:33;;;;;;;;;;;18.60;25.40;;;;;;5005769;28;19924;-87
2022/03/07 12:54:00;;;;;;;;;;;18.30;26.40;;;;;;5008534;28;19914;-87
2022/03/07 12:56:34;;;;;;;;;;;17.90;27.90;;;;;;5009988;28;19913;-87
2022/03/07 12:58:59;;;;;;;;;;;17.50;25.80;;;;;;5004732;28;20363;-87
2022/03/07 13:01:26;;;;;;;;;;;16.30;27.80;;;;;;5006459;28;19956;-86
2022/03/07 13:03:52;;;;;;;;;;;14.90;29.10;;;;;;5006269;28;19926;-86
2022/03/07 13:06:22;;;;;;;;;;;14.80;29.80;;;;;;5003671;28;19917;-87
2022/03/07 13:08:52;;;;;;;;;;;15.50;30.10;;;;;;5004708;28;19922;-87
2022/03/07 13:11:30;;;;;;;;;;;16.10;29.10;;;;;;5010168;28;19918;-86
2022/03/07 13:13:55;;;;;;;;;;;16.80;28.20;;;;;;5016654;28;19928;-87
2022/03/07 13:16:25;;;;;;;;;;;17.20;27.90;;;;;;5010121;28;19921;-87
2022/03/07 13:19:17;;;;;;;;;;;17.40;26.60;;;;;;5012069;28;19922;-86
2022/03/07 13:21:44;;;;;;;;;;;16.50;26.70;;;;;;5004856;28;19971;-86
2022/03/07 13:24:11;;;;;;;;;;;16.80;26.40;;;;;;4990715;28;20300;-87
2022/03/07 13:26:36;;;;;;;;;;;17.70;26.20;;;;;;4986101;28;20431;-87
2022/03/07 13:29:07;;;;;;;;;;;17.10;26.80;;;;;;4981853;28;19914;-86
2022/03/07 13:31:48;;;;;;;;;;;16.80;27.10;;;;;;4987564;28;19967;-87
2022/03/07 13:34:15;;;;;;;;;;;17.00;27.40;;;;;;4985457;28;19914;-87
2022/03/07 13:36:58;;;;;;;;;;;17.60;26.60;;;;;;4991358;28;20016;-86
2022/03/07 13:39:26;;;;;;;;;;;17.80;26.40;;;;;;4997470;28;19921;-86
2022/03/07 13:41:51;;;;;;;;;;;17.20;26.10;;;;;;4996977;28;19914;-87
2022/03/07 13:44:17;;;;;;;;;;;16.50;26.80;;;;;;4986925;28;19922;-87
2022/03/07 13:46:53;;;;;;;;;;;17.00;27.40;;;;;;4986982;28;19913;-87
2022/03/07 13:49:18;;;;;;;;;;;17.80;26.20;;;;;;4989846;28;20369;-87
2022/03/07 13:51:44;;;;;;;;;;;18.90;24.60;;;;;;4986533;28;19918;-87
2022/03/07 13:54:09;;;;;;;;;;;19.20;24.20;;;;;;4991235;28;19918;-87
2022/03/07 13:56:36;;;;;;;;;;;19.30;24.80;;;;;;5002073;28;19980;-87
2022/03/07 13:59:11;;;;;;;;;;;19.70;23.50;;;;;;4984866;28;19913;-87
2022/03/07 14:01:37;;;;;;;;;;;19.40;23.90;;;;;;4984639;28;19960;-86
2022/03/07 14:04:17;;;;;;;;;;;17.30;25.80;;;;;;4998785;28;19922;-86
2022/03/07 14:06:44;;;;;;;;;;;16.70;27.30;;;;;;4993909;28;19914;-86
2022/03/07 14:09:14;;;;;;;;;;;16.30;27.70;;;;;;5000982;28;19920;-86
2022/03/07 14:11:40;;;;;;;;;;;15.80;27.80;;;;;;4988807;28;20372;-86
2022/03/07 14:14:16;;;;;;;;;;;16.30;27.30;;;;;;4992849;28;19914;-86
2022/03/07 14:16:42;;;;;;;;;;;16.40;28.40;;;;;;4989742;28;20009;-86
2022/03/07 14:19:08;;;;;;;;;;;16.50;27.40;;;;;;4998828;28;20291;-86
2022/03/07 14:21:34;;;;;;;;;;;16.70;27.40;;;;;;4997019;28;19917;-86
2022/03/07 14:24:03;;;;;;;;;;;17.20;27.20;;;;;;5013383;28;19929;-86
2022/03/07 14:26:28;;;;;;;;;;;17.70;26.30;;;;;;5020611;28;20009;-87
2022/03/07 14:28:56;;;;;;;;;;;18.00;26.90;;;;;;5005234;28;20000;-86
2022/03/07 14:31:21;;;;;;;;;;;18.30;25.00;;;;;;5014384;28;19913;-86
2022/03/07 14:33:47;;;;;;;;;;;17.80;26.40;;;;;;5005390;28;19922;-86
2022/03/07 14:36:13;;;;;;;;;;;16.90;27.20;;;;;;5010475;28;19914;-87
2022/03/07 14:38:38;;;;;;;;;;;16.90;26.80;;;;;;5011501;28;20396;-86
2022/03/07 14:41:04;;;;;;;;;;;15.80;28.20;;;;;;5013143;28;20000;-86
2022/03/07 14:43:30;;;;;;;;;;;15.60;28.90;;;;;;5030866;28;19924;-86
2022/03/07 14:46:00;;;;;;;;;;;15.90;29.00;;;;;;5016146;28;19967;-86
2022/03/07 14:48:27;;;;;;;;;;;16.60;27.50;;;;;;5014517;28;20351;-87
2022/03/07 14:50:52;;;;;;;;;;;17.70;27.30;;;;;;5004458;28;19922;-87
2022/03/07 14:53:18;;;;;;;;;;;18.30;26.10;;;;;;5005420;28;20261;-87
2022/03/07 14:55:44;;;;;;;;;;;18.30;25.90;;;;;;5004400;28;20334;-86
2022/03/07 14:58:09;;;;;;;;;;;18.10;25.60;;;;;;5014332;28;19920;-86
2022/03/07 15:00:35;;;;;;;;;;;17.60;25.30;;;;;;5009172;28;20256;-86
2022/03/07 15:03:01;;;;;;;;;;;16.70;26.30;;;;;;5006543;28;20402;-87
2022/03/07 15:05:26;;;;;;;;;;;16.90;26.20;;;;;;5015654;28;20298;-86
2022/03/07 15:07:52;;;;;;;;;;;16.80;27.70;;;;;;5003047;28;20331;-86
2022/03/07 15:10:17;;;;;;;;;;;16.40;26.80;;;;;;5012106;28;19913;-86
2022/03/07 15:12:43;;;;;;;;;;;16.80;27.00;;;;;;5007629;28;20371;-86
2022/03/07 15:15:09;;;;;;;;;;;16.70;27.30;;;;;;4999586;28;19921;-86
2022/03/07 15:17:34;;;;;;;;;;;16.50;26.70;;;;;;5004721;28;20001;-86
2022/03/07 15:20:00;;;;;;;;;;;16.40;27.10;;;;;;5008256;28;20446;-86
2022/03/07 15:22:26;;;;;;;;;;;16.60;27.00;;;;;;5000908;28;19918;-86
2022/03/07 15:24:52;;;;;;;;;;;16.90;26.60;;;;;;5002609;28;20334;-86
2022/03/07 15:27:19;;;;;;;;;;;17.00;26.50;;;;;;5002393;28;19922;-86